Time;durP1;ratioP1;P1;durP2;ratioP2;P2;SDS_P1;SDS_P2;PMS_P1;PMS_P2;Temp;Humidity;BMP_temperature;BMP_pressure;BME280_temperature;BME280_humidity;BME280_pressure;Samples;Min_cycle;Max_cycle;Signal;HPM_P1;HPM_P2
2021/11/26 00:01:39;;;;;;;40.70;24.92;;;;;;;5.71;64.74;97858.78;5051311;28;20025;-48
2021/11/26 00:04:06;;;;;;;42.13;28.65;;;;;;;5.66;64.73;97865.59;5051086;28;20071;-49
2021/11/26 00:06:32;;;;;;;41.92;29.42;;;;;;;5.57;64.63;97865.72;5033189;28;20037;-48
2021/11/26 00:09:00;;;;;;;45.17;27.70;;;;;;;5.47;65.18;97849.59;5051046;28;20049;-49
2021/11/26 00:11:26;;;;;;;40.58;24.63;;;;;;;5.57;64.95;97863.13;5054414;28;20029;-48
2021/11/26 00:14:05;;;;;;;42.70;27.95;;;;;;;5.75;64.80;97857.41;5036757;28;20055;-49
2021/11/26 00:16:39;;;;;;;44.80;26.92;;;;;;;5.88;64.29;97850.72;5054595;28;20033;-49
2021/11/26 00:19:06;;;;;;;42.58;24.92;;;;;;;5.87;63.67;97856.91;5054670;28;20461;-48
2021/11/26 00:21:34;;;;;;;46.47;28.15;;;;;;;5.81;64.22;97858.47;5054587;28;20031;-48
2021/11/26 00:24:00;;;;;;;41.03;25.90;;;;;;;5.72;64.17;97850.00;5054525;28;20021;-48
2021/11/26 00:26:26;;;;;;;1999.90;999.90;;;;;;;5.82;64.33;97854.09;5036572;28;20029;-48
2021/11/26 00:28:52;;;;;;;1999.90;939.92;;;;;;;5.82;64.00;97852.28;5054364;28;20177;-48
2021/11/26 00:31:18;;;;;;;314.70;189.40;;;;;;;5.89;64.21;97852.31;5054178;28;20051;-49
2021/11/26 00:33:44;;;;;;;171.52;118.07;;;;;;;5.94;63.70;97849.94;5054341;28;20021;-48
2021/11/26 00:36:10;;;;;;;118.07;87.68;;;;;;;5.93;63.24;97841.31;5054164;28;20020;-48
2021/11/26 00:38:36;;;;;;;64.70;36.05;;;;;;;5.94;63.27;97847.34;5054254;28;20463;-48
2021/11/26 00:41:02;;;;;;;55.33;32.05;;;;;;;5.83;63.25;97846.06;5036287;28;20056;-48
2021/11/26 00:43:28;;;;;;;54.75;33.53;;;;;;;5.78;63.00;97851.84;5054095;28;20070;-48
2021/11/26 00:45:54;;;;;;;46.10;28.48;;;;;;;5.79;62.99;97837.84;5054086;28;20017;-49
2021/11/26 00:48:20;;;;;;;53.20;32.72;;;;;;;5.91;63.10;97842.50;5036174;28;20052;-49
2021/11/26 00:50:45;;;;;;;45.00;29.50;;;;;;;6.10;62.93;97836.66;5054038;28;20021;-48
2021/11/26 00:53:11;;;;;;;51.90;29.27;;;;;;;6.37;62.67;97839.38;5036072;28;20036;-49
2021/11/26 00:55:37;;;;;;;41.17;27.25;;;;;;;6.59;61.77;97835.63;5035932;28;20025;-48
2021/11/26 00:58:03;;;;;;;44.08;26.83;;;;;;;6.59;60.75;97835.63;5053873;28;20036;-48
2021/11/26 01:00:28;;;;;;;38.83;26.60;;;;;;;6.63;61.00;97830.06;5053849;28;20032;-47
2021/11/26 01:02:54;;;;;;;38.15;25.63;;;;;;;6.65;59.66;97825.44;5035942;28;20498;-49
2021/11/26 01:05:20;;;;;;;35.92;23.90;;;;;;;6.44;60.08;97826.34;5053810;28;20028;-48
2021/11/26 01:07:46;;;;;;;40.60;28.55;;;;;;;6.60;60.75;97826.84;5053760;28;20025;-48
2021/11/26 01:10:17;;;;;;;49.67;31.13;;;;;;;6.63;60.09;97817.81;5035712;28;20027;-48
2021/11/26 01:12:42;;;;;;;44.70;26.88;;;;;;;6.59;60.03;97825.22;5053679;28;20043;-48
2021/11/26 01:15:10;;;;;;;75.05;40.78;;;;;;;6.52;60.45;97824.41;5053505;28;20013;-47
2021/11/26 01:17:39;;;;;;;45.38;29.48;;;;;;;6.43;60.09;97822.94;5053465;28;20029;-48
2021/11/26 01:20:06;;;;;;;46.88;27.05;;;;;;;6.36;60.46;97820.34;5053441;28;20486;-49
2021/11/26 01:22:33;;;;;;;41.35;28.55;;;;;;;6.19;60.74;97822.44;5052392;28;20128;-49
2021/11/26 01:24:58;;;;;;;40.33;28.50;;;;;;;6.14;61.63;97814.41;5053407;28;20021;-49
2021/11/26 01:27:24;;;;;;;42.05;28.17;;;;;;;6.05;61.27;97812.16;5053268;28;20434;-48
2021/11/26 01:29:50;;;;;;;41.50;27.45;;;;;;;5.87;61.86;97813.44;5053021;28;20051;-49
2021/11/26 01:32:15;;;;;;;46.58;30.17;;;;;;;5.79;62.81;97819.63;5053233;28;20013;-48
2021/11/26 01:34:41;;;;;;;49.10;31.30;;;;;;;5.74;63.22;97829.00;5035251;28;20025;-49
2021/11/26 01:37:07;;;;;;;41.97;28.52;;;;;;;5.67;63.33;97825.53;5053065;28;20406;-48
2021/11/26 01:39:33;;;;;;;46.83;28.88;;;;;;;5.61;62.66;97819.28;5035151;28;20126;-48
2021/11/26 01:41:58;;;;;;;58.58;42.67;;;;;;;5.49;63.00;97826.78;5053026;28;20389;-48
2021/11/26 01:44:24;;;;;;;44.88;30.00;;;;;;;5.44;63.34;97823.16;5053017;28;20100;-49
2021/11/26 01:46:50;;;;;;;44.22;29.40;;;;;;;5.41;63.58;97816.53;5052927;28;20033;-49
2021/11/26 01:49:16;;;;;;;47.97;29.75;;;;;;;5.39;63.43;97811.53;5052840;28;20037;-48
2021/11/26 01:51:42;;;;;;;67.38;40.90;;;;;;;5.37;63.88;97810.91;5052898;28;20028;-48
2021/11/26 01:54:08;;;;;;;49.08;33.38;;;;;;;5.39;62.83;97811.53;5034845;28;20025;-48
2021/11/26 01:56:35;;;;;;;48.17;30.30;;;;;;;5.37;63.51;97813.53;5034653;28;20021;-48
2021/11/26 01:59:01;;;;;;;42.47;28.50;;;;;;;5.47;63.84;97814.97;5052742;28;20067;-48
2021/11/26 02:01:26;;;;;;;45.78;29.38;;;;;;;5.64;63.10;97815.50;5052628;28;20021;-48
2021/11/26 02:03:52;;;;;;;49.10;29.67;;;;;;;5.76;63.07;97814.78;5034684;28;20479;-49
2021/11/26 02:06:19;;;;;;;52.17;35.92;;;;;;;5.77;62.10;97811.16;5052561;28;20032;-48
2021/11/26 02:08:47;;;;;;;43.75;29.65;;;;;;;5.77;62.32;97812.97;5052582;28;20063;-48
2021/11/26 02:11:13;;;;;;;45.90;31.25;;;;;;;5.67;62.18;97808.09;5034497;28;20027;-49
2021/11/26 02:13:39;;;;;;;46.08;30.35;;;;;;;5.46;62.39;97808.97;5052462;28;20036;-49
2021/11/26 02:16:05;;;;;;;51.83;33.05;;;;;;;5.30;63.15;97801.44;5052301;28;20067;-48
2021/11/26 02:18:31;;;;;;;43.85;30.17;;;;;;;5.20;63.45;97796.56;5034420;28;20055;-49
2021/11/26 02:20:57;;;;;;;47.13;30.08;;;;;;;5.35;64.15;97788.66;5052228;28;20025;-48
2021/11/26 02:23:24;;;;;;;49.17;32.13;;;;;;;5.47;63.05;97789.75;5034319;28;20124;-48
2021/11/26 02:25:50;;;;;;;48.60;32.45;;;;;;;5.42;64.50;97780.94;5052216;28;20056;-48
2021/11/26 02:28:18;;;;;;;46.00;32.45;;;;;;;5.36;64.94;97778.06;5052155;28;20079;-47
2021/11/26 02:30:44;;;;;;;45.03;31.10;;;;;;;5.28;64.96;97767.81;5051818;28;20044;-49
2021/11/26 02:33:14;;;;;;;43.30;29.70;;;;;;;5.18;64.85;97775.94;5051943;28;20124;-48
2021/11/26 02:35:41;;;;;;;52.13;31.63;;;;;;;5.17;65.41;97773.50;5051988;28;20017;-48
2021/11/26 02:38:09;;;;;;;49.72;29.83;;;;;;;5.20;64.82;97770.56;5052093;28;20017;-49
2021/11/26 02:40:37;;;;;;;72.07;51.13;;;;;;;5.19;65.67;97774.13;5051946;28;20048;-49
2021/11/26 02:43:03;;;;;;;49.40;32.47;;;;;;;5.28;66.47;97774.81;5051937;28;20032;-49
2021/11/26 02:45:29;;;;;;;48.50;33.75;;;;;;;5.44;65.50;97771.13;5051884;28;20029;-50
2021/11/26 02:47:56;;;;;;;48.38;32.80;;;;;;;5.40;64.88;97781.09;5051904;28;20076;-49
2021/11/26 02:50:24;;;;;;;47.03;31.70;;;;;;;5.29;65.04;97779.84;5051770;28;20023;-49
2021/11/26 02:52:51;;;;;;;45.95;30.83;;;;;;;5.27;65.19;97768.00;5033754;28;20052;-48
2021/11/26 02:55:21;;;;;;;50.25;35.28;;;;;;;5.27;65.31;97773.19;5051708;28;20107;-48
2021/11/26 02:57:48;;;;;;;47.53;33.60;;;;;;;5.26;65.94;97774.19;5051735;28;20103;-49
2021/11/26 03:00:25;;;;;;;45.45;29.45;;;;;;;5.23;65.71;97769.38;5051710;28;20104;-49
2021/11/26 03:02:52;;;;;;;83.60;58.40;;;;;;;5.23;65.58;97766.75;5051713;28;20051;-49
2021/11/26 03:05:18;;;;;;;44.70;30.63;;;;;;;5.12;65.38;97757.69;5051499;28;20510;-48
2021/11/26 03:07:44;;;;;;;43.90;31.60;;;;;;;5.06;65.61;97761.84;5051590;28;20056;-48
2021/11/26 03:10:17;;;;;;;46.92;31.25;;;;;;;5.06;65.76;97766.25;5033759;28;20553;-47
2021/11/26 03:12:47;;;;;;;52.67;33.35;;;;;;;5.03;65.43;97756.19;5051582;28;20033;-48
2021/11/26 03:15:15;;;;;;;48.50;31.20;;;;;;;5.12;65.64;97765.50;5051622;28;20514;-48
2021/11/26 03:17:41;;;;;;;46.25;32.08;;;;;;;5.18;66.01;97754.34;5033503;28;20021;-48
2021/11/26 03:20:08;;;;;;;48.55;32.35;;;;;;;5.14;66.26;97755.69;5051503;28;20025;-49
2021/11/26 03:22:34;;;;;;;48.28;31.85;;;;;;;5.03;66.38;97757.03;5051498;28;20021;-49
2021/11/26 03:25:00;;;;;;;50.70;32.38;;;;;;;5.02;66.59;97758.00;5051456;28;20466;-48
2021/11/26 03:27:25;;;;;;;58.58;41.42;;;;;;;5.03;66.39;97753.59;5051756;28;20039;-48
2021/11/26 03:29:51;;;;;;;47.63;33.53;;;;;;;5.05;66.71;97752.44;5051156;28;20059;-49
2021/11/26 03:32:17;;;;;;;51.15;34.20;;;;;;;4.93;67.03;97748.72;5051374;28;20033;-49
2021/11/26 03:34:42;;;;;;;54.17;35.17;;;;;;;4.75;67.08;97749.97;5051363;28;20028;-49
2021/11/26 03:37:08;;;;;;;48.80;33.40;;;;;;;4.66;67.30;97745.88;5033402;28;20060;-48
2021/11/26 03:39:34;;;;;;;50.03;33.58;;;;;;;4.66;67.14;97750.28;5051317;28;20027;-48
2021/11/26 03:42:00;;;;;;;49.03;33.90;;;;;;;4.65;66.89;97746.06;5051262;28;20100;-48
2021/11/26 03:44:25;;;;;;;57.08;39.05;;;;;;;4.54;66.15;97748.16;5033798;28;20105;-48
2021/11/26 03:46:51;;;;;;;51.22;31.23;;;;;;;4.31;67.08;97750.13;5055216;28;20051;-49
2021/11/26 03:49:17;;;;;;;60.67;39.72;;;;;;;4.48;67.15;97748.91;5055192;28;20067;-48
2021/11/26 03:51:43;;;;;;;53.95;34.50;;;;;;;4.58;66.45;97746.81;5055047;28;20391;-47
2021/11/26 03:54:09;;;;;;;52.35;33.10;;;;;;;4.62;66.43;97751.66;5055152;28;20032;-49
2021/11/26 03:56:35;;;;;;;46.60;31.45;;;;;;;4.65;65.96;97753.84;5054993;28;20021;-48
2021/11/26 03:59:00;;;;;;;51.15;32.50;;;;;;;4.72;65.98;97747.75;5054978;28;20028;-49
2021/11/26 04:01:26;;;;;;;79.68;60.40;;;;;;;4.78;65.29;97743.59;5054975;28;20399;-48
2021/11/26 04:03:51;;;;;;;52.58;35.92;;;;;;;4.78;64.78;97749.59;5054918;28;20479;-48
2021/11/26 04:06:17;;;;;;;47.65;32.95;;;;;;;4.78;65.19;97751.41;5054807;28;20029;-49
2021/11/26 04:08:43;;;;;;;48.60;32.47;;;;;;;4.78;64.91;97749.59;5053653;28;20032;-48
2021/11/26 04:11:08;;;;;;;49.60;33.05;;;;;;;4.86;64.65;97756.47;5054799;28;20029;-48
2021/11/26 04:13:34;;;;;;;46.47;30.67;;;;;;;4.98;64.62;97756.78;5054522;28;20482;-47
2021/11/26 04:16:05;;;;;;;49.28;34.22;;;;;;;5.05;64.04;97756.81;5054634;28;20025;-48
2021/11/26 04:18:33;;;;;;;48.58;30.05;;;;;;;5.07;64.12;97753.06;5054781;28;20036;-47
2021/11/26 04:21:03;;;;;;;47.40;31.38;;;;;;;5.10;64.44;97744.06;5036771;28;20029;-49
2021/11/26 04:23:29;;;;;;;52.03;36.70;;;;;;;5.08;64.44;97743.44;5036649;28;20116;-49
2021/11/26 04:25:55;;;;;;;47.05;31.02;;;;;;;5.09;63.52;97740.66;5036558;28;20477;-48
2021/11/26 04:28:22;;;;;;;47.47;31.42;;;;;;;4.97;63.69;97745.56;5054485;28;20021;-49
2021/11/26 04:30:48;;;;;;;45.63;32.47;;;;;;;4.90;63.97;97749.91;5054216;28;20041;-48
2021/11/26 04:33:13;;;;;;;51.05;32.42;;;;;;;4.84;64.07;97748.03;5054383;28;20455;-48
2021/11/26 04:35:39;;;;;;;54.50;32.13;;;;;;;4.84;64.50;97752.44;5054273;28;20557;-48
2021/11/26 04:38:05;;;;;;;42.88;29.02;;;;;;;4.89;64.34;97752.69;5054263;28;20135;-48
2021/11/26 04:40:31;;;;;;;41.20;27.52;;;;;;;4.87;64.26;97755.50;5054218;28;20100;-49
2021/11/26 04:42:56;;;;;;;46.00;32.47;;;;;;;4.83;63.63;97751.66;5054198;28;20044;-48
2021/11/26 04:45:22;;;;;;;41.15;29.35;;;;;;;4.81;63.81;97748.44;5053902;28;20486;-48
2021/11/26 04:47:48;;;;;;;43.15;27.77;;;;;;;4.87;63.57;97749.47;5054087;28;20083;-49
2021/11/26 04:50:15;;;;;;;44.40;29.65;;;;;;;4.74;63.75;97745.75;5054024;28;20420;-48
2021/11/26 04:52:41;;;;;;;45.20;28.05;;;;;;;4.89;63.10;97748.31;5054066;28;20025;-48
2021/11/26 04:55:09;;;;;;;40.53;27.23;;;;;;;4.95;62.78;97739.75;5053909;28;20079;-48
2021/11/26 04:57:35;;;;;;;41.08;29.42;;;;;;;4.86;62.80;97738.25;5053792;28;20043;-49
2021/11/26 05:00:05;;;;;;;44.30;26.20;;;;;;;4.88;63.24;97738.88;5053835;28;20550;-53
2021/11/26 05:02:30;;;;;;;41.25;27.52;;;;;;;4.99;62.68;97741.00;5053867;28;20029;-48
2021/11/26 05:04:56;;;;;;;43.28;28.08;;;;;;;5.03;62.39;97735.41;5053522;28;20013;-47
2021/11/26 05:07:23;;;;;;;38.67;27.60;;;;;;;5.06;62.53;97746.22;5053730;28;20098;-48
2021/11/26 05:09:49;;;;;;;40.85;28.52;;;;;;;5.16;62.00;97738.09;5053621;28;20028;-47
2021/11/26 05:12:15;;;;;;;40.45;26.08;;;;;;;5.28;61.61;97731.38;5035679;28;20025;-49
2021/11/26 05:14:40;;;;;;;40.45;25.75;;;;;;;5.39;61.89;97732.66;5053589;28;20029;-49
2021/11/26 05:17:06;;;;;;;42.58;28.70;;;;;;;5.42;62.33;97731.50;5053442;28;20457;-48
2021/11/26 05:19:32;;;;;;;37.50;25.83;;;;;;;5.33;62.14;97728.22;5035577;28;20028;-48
2021/11/26 05:21:58;;;;;;;36.40;28.30;;;;;;;5.18;62.55;97728.31;5035447;28;20021;-48
2021/11/26 05:24:23;;;;;;;35.80;26.67;;;;;;;5.07;62.11;97723.63;5053418;28;20029;-48
2021/11/26 05:26:49;;;;;;;35.83;25.95;;;;;;;5.10;62.16;97726.66;5053418;28;20033;-48
2021/11/26 05:29:15;;;;;;;35.33;26.30;;;;;;;5.16;62.11;97725.91;5035085;28;20053;-47
2021/11/26 05:31:40;;;;;;;40.00;27.67;;;;;;;5.18;61.65;97736.13;5053338;28;20029;-49
2021/11/26 05:34:08;;;;;;;38.78;25.13;;;;;;;5.05;61.45;97731.63;5035202;28;20552;-48
2021/11/26 05:36:35;;;;;;;34.78;26.10;;;;;;;5.02;61.87;97734.59;5035116;28;20025;-48
2021/11/26 05:39:01;;;;;;;43.33;28.67;;;;;;;5.02;61.92;97733.81;5053141;28;20069;-48
2021/11/26 05:41:27;;;;;;;32.67;25.10;;;;;;;5.10;61.40;97731.84;5053114;28;20029;-48
2021/11/26 05:43:53;;;;;;;34.60;26.83;;;;;;;4.98;60.99;97721.16;5053073;28;20573;-48
2021/11/26 05:46:18;;;;;;;32.72;23.67;;;;;;;4.93;61.43;97717.50;5053013;28;20424;-47
2021/11/26 05:48:44;;;;;;;30.85;23.33;;;;;;;4.93;60.93;97717.50;5035015;28;20482;-48
2021/11/26 05:51:10;;;;;;;33.00;21.95;;;;;;;4.87;61.06;97718.25;5052884;28;20115;-47
2021/11/26 05:53:36;;;;;;;34.13;24.23;;;;;;;4.97;61.58;97711.78;5052896;28;20100;-48
2021/11/26 05:56:02;;;;;;;57.40;44.75;;;;;;;5.06;61.02;97712.44;5052822;28;20021;-47
2021/11/26 05:58:28;;;;;;;35.97;25.05;;;;;;;5.12;60.99;97713.47;5052519;28;20044;-47
2021/11/26 06:00:54;;;;;;;40.38;25.42;;;;;;;5.22;60.78;97713.94;5052749;28;20171;-48
2021/11/26 06:03:20;;;;;;;36.03;25.95;;;;;;;5.31;60.67;97709.38;5052801;28;20458;-48
2021/11/26 06:05:46;;;;;;;37.45;23.88;;;;;;;5.39;60.10;97699.66;5052661;28;20522;-48
2021/11/26 06:08:12;;;;;;;36.25;26.77;;;;;;;5.47;59.82;97703.88;5052021;28;20394;-48
2021/11/26 06:10:37;;;;;;;32.70;24.50;;;;;;;5.39;59.63;97706.63;5034711;28;20513;-47
2021/11/26 06:13:03;;;;;;;43.50;26.95;;;;;;;5.33;60.17;97697.81;5052244;28;20436;-48
2021/11/26 06:15:29;;;;;;;39.28;25.67;;;;;;;5.33;59.66;97699.59;5052450;28;20586;-48
2021/11/26 06:17:55;;;;;;;34.50;26.23;;;;;;;5.32;60.15;97691.00;5052376;28;20021;-48
2021/11/26 06:20:21;;;;;;;34.63;23.65;;;;;;;5.34;59.92;97688.22;5052304;28;20517;-48
2021/11/26 06:22:47;;;;;;;34.30;23.23;;;;;;;5.35;59.62;97692.41;5052328;28;20548;-48
2021/11/26 06:25:15;;;;;;;41.47;26.40;;;;;;;5.31;60.08;97685.97;5052158;28;20522;-48
2021/11/26 06:27:41;;;;;;;34.67;24.08;;;;;;;5.31;59.75;97689.41;5052220;28;20044;-48
2021/11/26 06:30:12;;;;;;;34.65;27.00;;;;;;;5.34;60.32;97686.41;5051946;28;20072;-48
2021/11/26 06:32:43;;;;;;;35.25;25.30;;;;;;;5.39;60.17;97685.81;5052476;28;20033;-47
2021/11/26 06:35:12;;;;;;;36.50;25.52;;;;;;;5.37;59.41;97680.84;5034092;28;20895;-47
2021/11/26 06:37:37;;;;;;;33.03;24.63;;;;;;;5.32;59.47;97688.38;5034011;28;20021;-48
2021/11/26 06:40:05;;;;;;;35.22;24.30;;;;;;;5.24;59.73;97688.53;5051972;28;20063;-47
2021/11/26 06:42:32;;;;;;;33.88;23.80;;;;;;;5.25;59.79;97684.13;5034109;28;20029;-48
2021/11/26 06:44:58;;;;;;;40.63;27.08;;;;;;;5.11;59.51;97688.44;5051962;28;20017;-47
2021/11/26 06:47:23;;;;;;;51.45;35.75;;;;;;;4.83;59.82;97696.25;5051803;28;20031;-47
2021/11/26 06:49:49;;;;;;;38.72;26.33;;;;;;;4.65;60.88;97691.50;5051921;28;20126;-47
2021/11/26 06:52:16;;;;;;;39.03;25.73;;;;;;;4.72;61.05;97690.56;5051808;28;20028;-48
2021/11/26 06:54:43;;;;;;;40.08;26.77;;;;;;;4.78;60.79;97687.22;5051779;28;20391;-48
2021/11/26 06:57:09;;;;;;;37.67;26.35;;;;;;;4.92;60.90;97690.72;5033772;28;20033;-48
2021/11/26 06:59:35;;;;;;;32.10;24.02;;;;;;;4.97;60.65;97687.53;5051759;28;20082;-48
2021/11/26 07:02:00;;;;;;;39.08;26.80;;;;;;;5.03;60.77;97683.38;5033813;28;20112;-48
2021/11/26 07:04:28;;;;;;;32.95;23.75;;;;;;;5.13;61.12;97678.66;5051692;28;20124;-48
2021/11/26 07:06:53;;;;;;;38.67;30.15;;;;;;;5.16;60.49;97678.28;5051656;28;20029;-48
2021/11/26 07:09:19;;;;;;;39.22;25.45;;;;;;;5.19;60.24;97680.50;5051621;28;20020;-48
2021/11/26 07:11:45;;;;;;;37.22;27.13;;;;;;;5.26;60.00;97677.97;5051590;28;20033;-48
2021/11/26 07:14:11;;;;;;;40.55;27.50;;;;;;;5.11;60.14;97678.88;5051611;28;20052;-48
2021/11/26 07:16:37;;;;;;;35.80;24.17;;;;;;;5.04;60.66;97682.41;5033559;28;20059;-48
2021/11/26 07:19:03;;;;;;;42.70;26.33;;;;;;;4.99;60.11;97688.19;5051418;28;20037;-48
2021/11/26 07:21:30;;;;;;;42.70;27.75;;;;;;;5.03;60.92;97678.19;5055366;28;20044;-48
2021/11/26 07:23:56;;;;;;;35.58;26.42;;;;;;;5.09;60.23;97687.84;5056019;28;20021;-48
2021/11/26 07:26:22;;;;;;;37.05;26.10;;;;;;;5.10;60.31;97673.84;5055557;28;20521;-48
2021/11/26 07:28:48;;;;;;;35.47;26.23;;;;;;;5.19;60.58;97678.72;5055600;28;20017;-49
2021/11/26 07:31:14;;;;;;;34.88;24.63;;;;;;;5.26;60.39;97675.34;5055356;28;20067;-48
2021/11/26 07:33:40;;;;;;;37.97;25.33;;;;;;;5.32;59.95;97685.00;5037506;28;20028;-47
2021/11/26 07:36:08;;;;;;;43.10;26.45;;;;;;;5.37;60.42;97682.59;5055385;28;20017;-48
2021/11/26 07:38:35;;;;;;;39.08;26.20;;;;;;;5.43;60.10;97681.84;5055399;28;20028;-48
2021/11/26 07:41:02;;;;;;;39.75;26.40;;;;;;;5.48;59.85;97676.06;5055310;28;20096;-48
2021/11/26 07:43:27;;;;;;;36.53;25.08;;;;;;;5.55;59.93;97674.28;5055271;28;20058;-48
2021/11/26 07:45:53;;;;;;;36.53;25.95;;;;;;;5.60;59.41;97672.72;5055288;28;20049;-48
2021/11/26 07:48:19;;;;;;;42.25;27.83;;;;;;;5.66;59.78;97684.16;5055252;28;20021;-48
2021/11/26 07:50:45;;;;;;;38.05;25.38;;;;;;;5.68;59.23;97676.19;5055135;28;20036;-48
2021/11/26 07:53:11;;;;;;;55.67;38.08;;;;;;;5.66;59.52;97676.34;5055192;28;20108;-48
2021/11/26 07:55:37;;;;;;;38.60;28.52;;;;;;;5.68;59.29;97676.19;5037125;28;20523;-48
2021/11/26 07:58:05;;;;;;;36.10;26.42;;;;;;;5.71;59.39;97675.78;5037076;28;20032;-48
2021/11/26 08:00:30;;;;;;;36.78;26.98;;;;;;;5.73;59.01;97676.38;5054974;28;20397;-48
2021/11/26 08:02:58;;;;;;;38.28;25.73;;;;;;;5.73;59.03;97674.56;5054977;28;20104;-49
2021/11/26 08:05:24;;;;;;;35.03;24.92;;;;;;;5.77;59.32;97681.00;5054920;28;20036;-48
2021/11/26 08:07:51;;;;;;;33.13;24.77;;;;;;;5.85;59.37;97682.63;5054948;28;20018;-48
2021/11/26 08:10:17;;;;;;;37.13;26.77;;;;;;;5.89;58.79;97681.25;5054876;28;20057;-49
2021/11/26 08:12:43;;;;;;;39.97;26.17;;;;;;;5.91;58.72;97678.44;5036900;28;20059;-48
2021/11/26 08:15:12;;;;;;;49.40;28.80;;;;;;;5.91;58.82;97686.25;5054797;28;20021;-48
2021/11/26 08:17:38;;;;;;;35.05;25.00;;;;;;;5.82;59.28;97679.63;5036695;28;20025;-48
2021/11/26 08:20:05;;;;;;;35.58;25.90;;;;;;;5.80;59.47;97688.44;5054639;28;20017;-47
2021/11/26 08:22:31;;;;;;;37.67;24.92;;;;;;;5.85;59.24;97692.25;5054612;28;20096;-48
2021/11/26 08:24:56;;;;;;;36.40;24.95;;;;;;;5.91;59.01;97687.06;5054596;28;20104;-48
2021/11/26 08:27:22;;;;;;;44.38;32.17;;;;;;;5.94;59.24;97691.09;5054262;28;20021;-48
2021/11/26 08:29:48;;;;;;;34.53;26.95;;;;;;;5.90;58.59;97685.47;5036220;28;20041;-48
2021/11/26 08:32:14;;;;;;;36.15;25.58;;;;;;;5.97;59.54;97677.69;5036023;28;20582;-49
2021/11/26 08:34:40;;;;;;;36.50;24.05;;;;;;;6.17;58.43;97677.75;5054366;28;20025;-48
2021/11/26 08:37:06;;;;;;;40.78;26.17;;;;;;;6.17;58.24;97667.34;5054251;28;20469;-48
2021/11/26 08:39:32;;;;;;;36.40;28.35;;;;;;;6.25;58.48;97682.78;5036292;28;20040;-48
2021/11/26 08:41:57;;;;;;;31.75;23.50;;;;;;;5.96;58.55;97670.91;5036344;28;20731;-48
2021/11/26 08:44:23;;;;;;;40.38;24.75;;;;;;;5.88;58.43;97676.25;5036228;28;20094;-48
2021/11/26 08:46:49;;;;;;;33.65;23.85;;;;;;;5.94;58.43;97670.25;5054093;28;20053;-48
2021/11/26 08:49:15;;;;;;;37.22;23.00;;;;;;;6.04;58.56;97669.91;5054160;28;20075;-48
2021/11/26 08:51:42;;;;;;;33.45;25.45;;;;;;;6.09;57.74;97683.94;5054318;28;20017;-48
2021/11/26 08:54:09;;;;;;;37.38;26.75;;;;;;;6.00;58.13;97675.53;5054015;28;20029;-48
2021/11/26 08:56:34;;;;;;;36.90;26.50;;;;;;;5.79;58.03;97673.81;5053857;28;20071;-48
2021/11/26 08:59:01;;;;;;;43.60;25.95;;;;;;;5.79;58.94;97673.81;5053929;28;20028;-49
2021/11/26 09:01:32;;;;;;;34.17;23.95;;;;;;;5.90;58.65;97674.25;5053860;28;20025;-48
2021/11/26 09:03:58;;;;;;;36.85;26.27;;;;;;;6.02;58.27;97671.91;5053836;28;20387;-47
2021/11/26 09:06:24;;;;;;;36.35;25.73;;;;;;;6.07;58.68;97670.31;5053737;28;20134;-48
2021/11/26 09:08:50;;;;;;;40.70;26.58;;;;;;;6.14;58.38;97670.34;5035793;28;20514;-48
2021/11/26 09:11:16;;;;;;;41.03;27.55;;;;;;;6.05;58.10;97671.53;5053694;28;20029;-48
2021/11/26 09:13:43;;;;;;;46.67;33.72;;;;;;;5.97;58.66;97669.88;5053605;28;20386;-47
2021/11/26 09:16:09;;;;;;;51.22;30.77;;;;;;;6.03;58.00;97666.50;5035483;28;20029;-48
2021/11/26 09:18:36;;;;;;;41.67;27.23;;;;;;;6.02;58.35;97666.69;5053586;28;20021;-48
2021/11/26 09:21:03;;;;;;;40.25;27.35;;;;;;;5.96;58.88;97668.31;5035542;28;20049;-48
2021/11/26 09:23:29;;;;;;;164.25;112.47;;;;;;;6.01;58.62;97671.09;5053434;28;20052;-48
2021/11/26 09:25:55;;;;;;;57.47;36.28;;;;;;;6.08;58.81;97671.94;5053406;28;20056;-47
2021/11/26 09:28:21;;;;;;;39.28;29.42;;;;;;;6.14;58.02;97676.34;5035459;28;20021;-48
2021/11/26 09:30:48;;;;;;;41.08;27.08;;;;;;;6.02;57.86;97675.31;5053053;28;20052;-48
2021/11/26 09:33:15;;;;;;;84.57;64.30;;;;;;;6.00;58.19;97669.50;5053262;28;20021;-49
2021/11/26 09:35:41;;;;;;;40.92;26.42;;;;;;;6.05;58.06;97680.13;5053261;28;20398;-48
2021/11/26 09:38:06;;;;;;;38.65;26.58;;;;;;;6.12;57.80;97683.56;5053178;28;20025;-48
2021/11/26 09:40:32;;;;;;;43.75;26.95;;;;;;;6.14;57.83;97678.16;5053013;28;20025;-48
2021/11/26 09:43:00;;;;;;;36.10;24.00;;;;;;;6.17;57.47;97667.34;5034295;28;20031;-48
2021/11/26 09:45:27;;;;;;;45.83;34.22;;;;;;;6.21;57.42;97676.38;5035242;28;20013;-48
2021/11/26 09:47:55;;;;;;;46.33;30.40;;;;;;;6.23;57.67;97669.16;5052995;28;20544;-48
2021/11/26 09:50:23;;;;;;;39.63;27.08;;;;;;;6.13;57.09;97677.34;5052977;28;20021;-48
2021/11/26 09:52:49;;;;;;;35.72;26.48;;;;;;;6.02;57.12;97675.31;5052902;28;20028;-48
2021/11/26 09:55:17;;;;;;;40.25;26.15;;;;;;;5.97;58.25;97669.88;5052885;28;20458;-47
2021/11/26 09:57:44;;;;;;;36.33;27.40;;;;;;;5.95;57.54;97670.06;5034682;28;20502;-47
2021/11/26 10:00:14;;;;;;;42.92;25.17;;;;;;;5.99;58.23;97671.28;5034856;28;20473;-48
2021/11/26 10:02:51;;;;;;;34.50;24.95;;;;;;;6.09;57.51;97660.50;5034845;28;20029;-48
2021/11/26 10:05:17;;;;;;;39.55;25.80;;;;;;;6.12;57.65;97657.53;5052680;28;20044;-48
2021/11/26 10:07:51;;;;;;;31.45;23.42;;;;;;;6.30;57.63;97643.94;5034746;28;20418;-48
2021/11/26 10:10:28;;;;;;;32.03;22.15;;;;;;;6.47;56.95;97641.72;5052622;28;20028;-48
2021/11/26 10:13:08;;;;;;;40.67;23.40;;;;;;;6.56;57.07;97639.72;5051084;28;20414;-48
2021/11/26 10:15:45;;;;;;;34.97;23.15;;;;;;;6.65;56.04;97635.13;5052526;28;20035;-48
2021/11/26 10:18:11;;;;;;;39.88;22.80;;;;;;;6.72;56.26;97631.53;5052518;28;20078;-49
2021/11/26 10:20:50;;;;;;;32.00;21.13;;;;;;;6.71;56.06;97627.28;5052367;28;20433;-48
2021/11/26 10:23:18;;;;;;;40.95;20.65;;;;;;;6.78;55.24;97624.66;5052434;28;20032;-48
2021/11/26 10:25:44;;;;;;;55.05;23.02;;;;;;;6.67;55.12;97620.09;5034705;28;20379;-48
2021/11/26 10:28:10;;;;;;;41.15;21.67;;;;;;;6.64;55.89;97613.47;5052265;28;20021;-48
2021/11/26 10:30:39;;;;;;;62.05;24.45;;;;;;;6.58;55.91;97606.47;5020554;28;20056;-48
2021/11/26 10:33:25;;;;;;;36.47;23.25;;;;;;;6.65;56.12;97612.47;5032279;28;20438;-49
2021/11/26 10:35:53;;;;;;;34.03;20.85;;;;;;;6.72;55.81;97615.88;5032023;28;20116;-49
2021/11/26 10:38:26;;;;;;;37.45;21.50;;;;;;;6.78;56.06;97603.81;5032165;28;20018;-48
2021/11/26 10:41:14;;;;;;;39.15;21.52;;;;;;;6.86;55.84;97605.41;5032170;28;20033;-48
2021/11/26 11:00:16;;;;;;;;;;;;;;;8.20;53.24;97580.34;5028213;28;20053;-48
2021/11/26 11:02:46;;;;;;;33.63;20.20;;;;;;;8.11;53.64;97574.59;5031933;28;19909;-48
2021/11/26 11:05:29;;;;;;;33.40;23.00;;;;;;;7.88;52.88;97571.72;5031818;28;20036;-49
2021/11/26 11:07:55;;;;;;;31.17;21.33;;;;;;;7.66;53.89;97566.81;5031829;28;20553;-48
2021/11/26 11:10:30;;;;;;;38.47;22.33;;;;;;;7.53;54.14;97569.50;5031751;28;20399;-48
2021/11/26 11:13:10;;;;;;;28.55;20.05;;;;;;;7.39;54.46;97566.16;5031713;28;20515;-48
2021/11/26 11:15:37;;;;;;;30.52;23.02;;;;;;;7.36;54.36;97563.94;5031752;28;20061;-49
2021/11/26 11:18:03;;;;;;;30.70;22.50;;;;;;;7.51;54.85;97556.66;5031537;28;20021;-49
2021/11/26 11:20:30;;;;;;;29.02;21.27;;;;;;;7.74;53.59;97555.31;5031705;28;20036;-48
2021/11/26 11:22:57;;;;;;;26.30;19.05;;;;;;;7.78;53.64;97543.44;5031654;28;20018;-48
2021/11/26 11:25:30;;;;;;;25.90;19.17;;;;;;;7.85;53.67;97544.22;5031598;28;20120;-48
2021/11/26 11:28:08;;;;;;;31.65;24.55;;;;;;;7.94;53.25;97531.69;5031664;28;20021;-48
2021/11/26 11:30:35;;;;;;;30.02;21.92;;;;;;;7.92;53.61;97536.31;5031237;28;20522;-48
2021/11/26 11:33:01;;;;;;;25.38;20.05;;;;;;;7.93;53.73;97530.91;5031564;28;20079;-49
2021/11/26 11:35:29;;;;;;;26.77;20.40;;;;;;;7.85;52.94;97525.94;5013737;28;20026;-47
2021/11/26 11:37:57;;;;;;;33.70;21.60;;;;;;;7.75;53.38;97522.97;5031487;28;20021;-49
2021/11/26 11:40:35;;;;;;;31.40;22.70;;;;;;;7.70;53.62;97523.59;5031455;28;20029;-48